createdAt,value
2022-11-24T00:01:31.572Z,20.40
2022-11-24T00:04:01.913Z,20.60
2022-11-24T00:06:32.050Z,17.60
2022-11-24T00:09:00.309Z,17.70
2022-11-24T00:11:31.379Z,18.10
2022-11-24T00:14:00.373Z,19.20
2022-11-24T00:16:30.747Z,21.10
2022-11-24T00:19:01.137Z,20.30
2022-11-24T00:21:30.971Z,21.00
2022-11-24T00:23:59.750Z,20.10
2022-11-24T00:26:33.247Z,21.80
2022-11-24T00:29:05.214Z,23.40
2022-11-24T00:31:36.128Z,20.90
2022-11-24T00:34:07.054Z,19.00
2022-11-24T00:36:36.680Z,19.90
2022-11-24T00:39:11.898Z,20.40
2022-11-24T00:41:41.647Z,22.30
2022-11-24T00:44:10.003Z,18.10
2022-11-24T00:46:38.681Z,21.80
2022-11-24T00:49:07.036Z,21.40
2022-11-24T00:51:35.195Z,23.20
2022-11-24T00:54:03.649Z,24.10
2022-11-24T00:56:31.723Z,23.30
2022-11-24T00:58:59.764Z,22.40
2022-11-24T01:01:31.276Z,22.50
2022-11-24T01:04:03.919Z,21.30
2022-11-24T01:06:32.849Z,20.30
2022-11-24T01:09:01.484Z,22.30
2022-11-24T01:11:55.283Z,18.60
2022-11-24T01:14:25.063Z,20.90
2022-11-24T01:16:53.825Z,19.70
2022-11-24T01:19:22.280Z,20.70
2022-11-24T01:21:51.191Z,17.20
2022-11-24T01:24:19.511Z,21.50
2022-11-24T01:26:47.716Z,20.80
2022-11-24T01:29:15.758Z,22.90
2022-11-24T01:31:43.801Z,18.20
2022-11-24T01:34:13.115Z,22.40
2022-11-24T01:36:41.293Z,21.90
2022-11-24T01:39:09.440Z,21.20
2022-11-24T01:41:37.599Z,21.30
2022-11-24T01:44:27.020Z,22.20
2022-11-24T01:47:32.993Z,18.60
2022-11-24T01:50:04.847Z,18.80
2022-11-24T01:52:53.935Z,17.70
2022-11-24T01:55:25.936Z,19.90
2022-11-24T01:57:59.656Z,20.10
2022-11-24T02:00:27.721Z,19.60
2022-11-24T02:02:59.247Z,20.20
2022-11-24T02:05:37.504Z,18.40
2022-11-24T02:08:11.141Z,18.20
2022-11-24T02:10:39.639Z,18.20
2022-11-24T02:13:07.739Z,21.20
2022-11-24T02:15:36.014Z,18.00
2022-11-24T02:18:04.295Z,20.50
2022-11-24T02:20:32.415Z,19.00
2022-11-24T02:23:15.762Z,20.50
2022-11-24T02:26:13.708Z,20.30
2022-11-24T02:28:41.908Z,18.30
2022-11-24T02:31:10.587Z,17.70
2022-11-24T02:33:39.130Z,19.80
2022-11-24T02:36:07.442Z,20.00
2022-11-24T02:38:36.250Z,19.40
2022-11-24T02:41:07.835Z,20.00
2022-11-24T02:43:41.649Z,16.40
2022-11-24T02:46:11.034Z,16.90
2022-11-24T02:48:39.240Z,17.90
2022-11-24T02:51:07.788Z,18.60
2022-11-24T02:53:35.827Z,17.80
2022-11-24T02:56:04.322Z,20.20
2022-11-24T02:58:32.462Z,18.80
2022-11-24T03:01:00.608Z,20.80
2022-11-24T03:03:28.772Z,19.90
2022-11-24T03:05:56.822Z,20.40
2022-11-24T03:08:24.906Z,20.20
2022-11-24T03:10:52.939Z,21.00
2022-11-24T03:13:20.957Z,20.20
2022-11-24T03:15:49.245Z,21.10
2022-11-24T03:18:17.787Z,20.00
2022-11-24T03:20:45.961Z,21.00
2022-11-24T03:23:14.427Z,20.00
2022-11-24T03:25:42.488Z,21.20
2022-11-24T03:28:10.498Z,21.70
2022-11-24T03:30:38.574Z,22.70
2022-11-24T03:33:07.372Z,21.50
2022-11-24T03:35:35.412Z,21.50
2022-11-24T03:38:03.549Z,21.20
2022-11-24T03:40:31.666Z,24.70
2022-11-24T03:43:00.683Z,20.50
2022-11-24T03:48:18.952Z,22.50
2022-11-24T03:50:56.305Z,20.10
2022-11-24T03:53:27.305Z,24.10
2022-11-24T03:55:56.272Z,25.10
2022-11-24T03:58:24.825Z,23.50
2022-11-24T04:00:54.077Z,22.00
2022-11-24T04:03:22.558Z,25.20
2022-11-24T04:05:50.750Z,25.20
2022-11-24T04:08:18.854Z,23.30
2022-11-24T04:10:53.292Z,23.20
2022-11-24T04:13:25.467Z,21.50
2022-11-24T04:15:54.258Z,22.30
2022-11-24T04:18:22.703Z,24.30
2022-11-24T04:20:51.672Z,22.50
2022-11-24T04:23:19.900Z,21.70
2022-11-24T04:25:48.035Z,22.00
2022-11-24T04:28:16.145Z,23.40
2022-11-24T04:30:45.140Z,20.90
2022-11-24T04:33:13.650Z,22.40
2022-11-24T04:35:41.716Z,22.80
2022-11-24T04:38:09.762Z,24.00
2022-11-24T04:40:38.643Z,24.10
2022-11-24T04:43:06.678Z,22.60
2022-11-24T04:45:34.874Z,24.80
2022-11-24T04:48:02.962Z,25.40
2022-11-24T04:50:31.129Z,25.30
2022-11-24T04:52:59.143Z,25.10
2022-11-24T04:55:27.202Z,23.20
2022-11-24T04:57:55.204Z,22.60
2022-11-24T05:00:23.319Z,21.60
2022-11-24T05:02:51.419Z,22.60
2022-11-24T05:05:19.458Z,22.90
2022-11-24T05:07:47.555Z,25.20
2022-11-24T05:10:34.973Z,25.60
2022-11-24T05:13:07.001Z,27.30
2022-11-24T05:15:37.960Z,26.30
2022-11-24T05:18:08.069Z,26.10
2022-11-24T05:20:36.495Z,26.20
2022-11-24T05:23:07.098Z,25.80
2022-11-24T05:25:35.675Z,27.80
2022-11-24T05:28:06.687Z,25.40
2022-11-24T05:30:34.878Z,26.60
2022-11-24T05:33:20.307Z,26.50
2022-11-24T05:35:49.558Z,24.50
2022-11-24T05:38:18.696Z,25.10
2022-11-24T05:40:46.983Z,26.40
2022-11-24T05:43:16.688Z,26.70
2022-11-24T05:45:45.474Z,27.90
2022-11-24T05:48:15.098Z,25.80
2022-11-24T05:50:43.357Z,24.30
2022-11-24T05:53:13.460Z,22.20
2022-11-24T05:55:41.584Z,23.80
2022-11-24T05:58:10.491Z,24.10
2022-11-24T06:00:39.807Z,24.90
2022-11-24T06:03:09.241Z,24.20
2022-11-24T06:05:38.364Z,23.80
2022-11-24T06:08:07.243Z,22.40
2022-11-24T06:10:35.308Z,24.50
2022-11-24T06:13:07.979Z,24.40
2022-11-24T06:15:37.890Z,23.10
2022-11-24T06:18:06.090Z,24.20
2022-11-24T06:20:34.288Z,28.00
2022-11-24T06:23:02.451Z,25.80
2022-11-24T06:25:31.312Z,28.00
2022-11-24T06:28:03.777Z,27.10
2022-11-24T06:30:32.121Z,28.20
2022-11-24T06:33:00.415Z,25.90
2022-11-24T06:35:28.826Z,27.40
2022-11-24T06:37:56.902Z,27.20
2022-11-24T06:40:24.944Z,25.00
2022-11-24T06:42:53.184Z,26.40
2022-11-24T06:45:21.882Z,29.70
2022-11-24T06:47:50.036Z,31.00
2022-11-24T06:50:18.274Z,35.10
2022-11-24T06:52:46.406Z,32.30
2022-11-24T06:55:14.544Z,29.10
2022-11-24T06:57:42.653Z,31.30
2022-11-24T07:00:11.624Z,30.20
2022-11-24T07:02:45.436Z,28.80
2022-11-24T07:05:14.947Z,29.10
2022-11-24T07:07:43.140Z,29.00
2022-11-24T07:10:11.272Z,26.70
2022-11-24T07:12:39.326Z,28.70
2022-11-24T07:15:08.544Z,28.10
2022-11-24T07:17:38.144Z,26.60
2022-11-24T07:20:08.712Z,24.70
2022-11-24T07:22:36.759Z,24.10
2022-11-24T07:25:07.519Z,24.90
2022-11-24T07:27:36.429Z,24.00
2022-11-24T07:30:04.817Z,25.20
2022-11-24T07:32:33.133Z,24.60
2022-11-24T07:35:01.184Z,26.00
2022-11-24T07:37:31.503Z,24.90
2022-11-24T07:40:00.208Z,21.60
2022-11-24T07:42:29.090Z,23.40
2022-11-24T07:44:57.301Z,21.10
2022-11-24T07:47:25.417Z,22.00
2022-11-24T07:49:53.605Z,22.10
2022-11-24T07:52:21.686Z,26.50
2022-11-24T07:54:49.778Z,21.60
2022-11-24T07:57:17.793Z,21.80
2022-11-24T07:59:45.895Z,21.40
2022-11-24T08:02:14.368Z,21.00
2022-11-24T08:04:43.488Z,21.90
2022-11-24T08:07:11.609Z,22.50
2022-11-24T08:09:39.760Z,23.40
2022-11-24T08:12:07.921Z,23.50
2022-11-24T08:14:36.375Z,22.40
2022-11-24T08:17:04.611Z,22.80
2022-11-24T08:19:32.884Z,23.60
2022-11-24T08:22:01.148Z,24.90
2022-11-24T08:24:29.246Z,26.50
2022-11-24T08:26:57.347Z,28.20
2022-11-24T08:29:29.797Z,30.40
2022-11-24T08:31:58.145Z,28.60
2022-11-24T08:34:29.054Z,31.00
2022-11-24T08:36:57.079Z,28.50
2022-11-24T08:39:25.502Z,29.50
2022-11-24T08:41:53.978Z,28.50
2022-11-24T08:44:22.786Z,27.80
2022-11-24T08:46:50.949Z,31.20
2022-11-24T08:49:19.119Z,28.40
2022-11-24T08:51:48.727Z,30.30
2022-11-24T08:54:18.949Z,29.40
2022-11-24T08:56:49.550Z,29.00
2022-11-24T08:59:18.466Z,28.60
2022-11-24T09:01:47.543Z,30.60
2022-11-24T09:04:16.323Z,32.20
2022-11-24T09:06:44.542Z,28.30
2022-11-24T09:09:12.951Z,31.20
2022-11-24T09:11:41.089Z,31.30
2022-11-24T09:14:09.267Z,32.90
2022-11-24T09:16:37.395Z,33.00
2022-11-24T09:19:08.221Z,33.90
2022-11-24T09:21:39.627Z,31.50
2022-11-24T09:24:09.857Z,33.20
2022-11-24T09:26:43.119Z,28.60
2022-11-24T09:31:42.634Z,27.70
2022-11-24T09:34:14.595Z,28.00
2022-11-24T09:36:43.531Z,28.50
2022-11-24T09:39:12.068Z,24.80
2022-11-24T09:42:17.844Z,27.10
2022-11-24T09:44:52.160Z,26.20
2022-11-24T09:47:55.348Z,27.10
2022-11-24T09:50:27.106Z,30.90
2022-11-24T09:53:12.690Z,28.70
2022-11-24T09:55:49.748Z,32.40
2022-11-24T09:58:38.912Z,28.60
2022-11-24T10:01:19.001Z,32.40
2022-11-24T10:03:52.478Z,29.90
2022-11-24T10:06:31.532Z,29.60
2022-11-24T10:09:21.648Z,29.90
2022-11-24T10:12:02.941Z,29.70
2022-11-24T10:15:19.245Z,31.50
2022-11-24T10:18:18.510Z,27.60
2022-11-24T10:21:14.502Z,24.80
2022-11-24T10:23:54.817Z,22.90
2022-11-24T10:26:31.700Z,23.90
2022-11-24T10:29:06.400Z,22.70
2022-11-24T10:31:37.758Z,22.70
2022-11-24T10:34:19.805Z,20.90
2022-11-24T10:37:12.710Z,21.40
2022-11-24T10:39:41.018Z,21.90
2022-11-24T10:42:15.395Z,21.90
2022-11-24T10:44:43.973Z,20.70
2022-11-24T10:47:22.978Z,20.80
2022-11-24T10:49:58.156Z,19.80
2022-11-24T10:52:31.677Z,23.10
2022-11-24T10:55:02.625Z,22.30
2022-11-24T10:57:34.006Z,23.40
2022-11-24T11:00:25.725Z,23.30
2022-11-24T11:03:26.953Z,22.60
2022-11-24T11:06:04.479Z,21.50
2022-11-24T11:08:32.717Z,21.30
2022-11-24T11:11:22.617Z,20.00
2022-11-24T11:14:02.937Z,20.90
2022-11-24T11:16:40.543Z,20.80
2022-11-24T11:19:49.888Z,19.10
2022-11-24T11:22:27.814Z,18.90
2022-11-24T11:25:08.119Z,18.50
2022-11-24T11:27:37.464Z,16.80
2022-11-24T11:36:11.494Z,19.50
2022-11-24T11:38:40.947Z,21.20
2022-11-24T11:41:22.568Z,20.10
2022-11-24T11:44:21.548Z,18.40
2022-11-24T11:46:49.911Z,18.20
2022-11-24T11:49:18.097Z,19.40
2022-11-24T11:52:14.127Z,22.90
2022-11-24T11:54:45.035Z,25.60
2022-11-24T11:57:22.044Z,20.50
2022-11-24T11:59:50.208Z,21.90
2022-11-24T12:02:41.345Z,21.80
2022-11-24T12:05:25.420Z,21.00
2022-11-24T12:08:23.619Z,21.90
2022-11-24T12:10:54.321Z,20.40
2022-11-24T12:13:56.875Z,20.60
2022-11-24T12:16:59.383Z,26.40
2022-11-24T12:19:35.940Z,24.90
2022-11-24T12:22:13.176Z,24.80
2022-11-24T12:24:57.207Z,23.60
2022-11-24T12:27:57.712Z,25.90
2022-11-24T12:30:30.099Z,26.40
2022-11-24T12:33:13.520Z,28.00
2022-11-24T12:35:47.647Z,29.60
2022-11-24T12:38:30.971Z,31.60
2022-11-24T12:41:43.977Z,27.30
2022-11-24T12:44:40.509Z,27.50
2022-11-24T12:47:27.447Z,25.10
2022-11-24T12:50:20.308Z,17.70
2022-11-24T12:52:58.787Z,15.90
2022-11-24T12:55:30.337Z,16.40
2022-11-24T12:58:20.447Z,16.10
2022-11-24T13:01:00.801Z,16.00
2022-11-24T13:03:49.757Z,16.80
2022-11-24T13:06:25.059Z,16.60
2022-11-24T13:08:54.109Z,18.90
2022-11-24T13:11:23.049Z,19.70
2022-11-24T13:14:13.639Z,18.00
2022-11-24T13:19:43.816Z,17.80
2022-11-24T13:22:25.870Z,19.00
2022-11-24T13:25:16.485Z,19.40
2022-11-24T13:27:48.721Z,18.40
2022-11-24T13:30:53.912Z,22.30
2022-11-24T13:33:31.585Z,20.40
2022-11-24T13:36:22.907Z,18.30
2022-11-24T13:38:50.980Z,15.90
2022-11-24T13:41:37.189Z,15.50
2022-11-24T13:44:14.887Z,15.60
2022-11-24T13:47:31.006Z,15.10
2022-11-24T13:50:00.490Z,17.20
2022-11-24T13:52:40.965Z,15.30
2022-11-24T13:55:11.815Z,17.60
2022-11-24T13:57:43.975Z,16.10
2022-11-24T14:00:32.123Z,15.00
2022-11-24T14:03:14.543Z,15.80
2022-11-24T14:05:49.300Z,18.00
2022-11-24T14:08:24.222Z,17.10
2022-11-24T14:10:54.746Z,15.70
2022-11-24T14:13:25.493Z,14.50
2022-11-24T14:16:02.744Z,16.50
2022-11-24T14:18:32.192Z,17.40
2022-11-24T14:21:16.580Z,16.70
2022-11-24T14:23:47.073Z,16.90
2022-11-24T14:26:21.454Z,18.50
2022-11-24T14:28:50.624Z,19.40
2022-11-24T14:31:25.228Z,18.40
2022-11-24T14:34:12.677Z,18.00
2022-11-24T14:36:41.198Z,18.60
2022-11-24T14:39:14.587Z,19.20
2022-11-24T14:41:51.663Z,18.50
2022-11-24T14:44:26.117Z,20.20
2022-11-24T14:47:06.523Z,20.70
2022-11-24T14:49:41.627Z,21.70
2022-11-24T14:52:15.790Z,21.30
2022-11-24T14:55:21.421Z,21.60
2022-11-24T14:57:49.859Z,23.00
2022-11-24T15:00:20.957Z,23.90
2022-11-24T15:02:55.428Z,21.60
2022-11-24T15:05:25.708Z,24.80
2022-11-24T15:08:03.060Z,24.60
2022-11-24T15:10:36.699Z,23.30
2022-11-24T15:13:18.165Z,24.60
2022-11-24T15:15:56.347Z,22.20
2022-11-24T15:18:35.662Z,23.10
2022-11-24T15:21:04.149Z,42.60
2022-11-24T15:23:33.969Z,29.80
2022-11-24T15:26:01.945Z,28.40
2022-11-24T15:28:31.404Z,28.60
2022-11-24T15:31:01.527Z,34.80
2022-11-24T15:33:30.571Z,25.00
2022-11-24T15:35:59.924Z,24.10
2022-11-24T15:38:28.218Z,21.10
2022-11-24T15:41:00.923Z,25.40
2022-11-24T15:43:38.910Z,22.50
2022-11-24T15:46:08.838Z,23.70
2022-11-24T15:48:37.162Z,24.80
2022-11-24T15:51:08.069Z,25.70
2022-11-24T15:53:48.506Z,24.80
2022-11-24T15:56:35.020Z,21.80
2022-11-24T15:59:03.944Z,20.00
2022-11-24T16:01:33.896Z,23.00
2022-11-24T16:04:02.730Z,21.40
2022-11-24T16:06:31.211Z,22.00
2022-11-24T16:08:59.536Z,21.30
2022-11-24T16:11:27.950Z,22.30
2022-11-24T16:13:56.155Z,23.50
2022-11-24T16:16:25.473Z,27.30
2022-11-24T16:18:53.734Z,26.30
2022-11-24T16:21:21.971Z,32.80
2022-11-24T16:23:50.108Z,25.80
2022-11-24T16:26:18.297Z,31.90
2022-11-24T16:28:46.448Z,29.70
2022-11-24T16:31:16.436Z,30.90
2022-11-24T16:33:45.427Z,28.40
2022-11-24T16:36:14.322Z,30.50
2022-11-24T16:38:42.434Z,29.10
2022-11-24T16:41:10.724Z,30.30
2022-11-24T16:43:38.970Z,31.60
2022-11-24T16:46:23.149Z,32.10
2022-11-24T16:49:00.179Z,32.20
2022-11-24T16:51:34.502Z,33.30
2022-11-24T16:54:03.849Z,27.00
2022-11-24T16:56:32.135Z,28.00
2022-11-24T16:59:00.279Z,26.90
2022-11-24T17:01:29.987Z,26.90
2022-11-24T17:03:59.283Z,27.20
2022-11-24T17:06:27.840Z,25.00
2022-11-24T17:08:56.029Z,26.50
2022-11-24T17:11:26.027Z,28.40
2022-11-24T17:13:56.327Z,26.00
2022-11-24T17:16:26.368Z,29.40
2022-11-24T17:18:54.717Z,28.40
2022-11-24T17:21:25.639Z,29.50
2022-11-24T17:23:55.742Z,30.60
2022-11-24T17:26:25.544Z,32.40
2022-11-24T17:28:54.877Z,31.50
2022-11-24T17:31:28.598Z,29.30
2022-11-24T17:33:58.711Z,34.60
2022-11-24T17:36:29.723Z,39.60
2022-11-24T17:39:00.193Z,42.90
2022-11-24T17:41:28.288Z,34.30
2022-11-24T17:43:56.758Z,43.20
2022-11-24T17:46:26.393Z,33.30
2022-11-24T17:48:55.400Z,36.70
2022-11-24T17:51:25.232Z,35.20
2022-11-24T17:53:55.002Z,33.80
2022-11-24T17:56:25.646Z,38.70
2022-11-24T17:58:59.969Z,36.20
2022-11-24T18:01:30.270Z,36.90
2022-11-24T18:03:58.810Z,35.50
2022-11-24T18:06:29.443Z,34.60
2022-11-24T18:08:58.430Z,33.70
2022-11-24T18:11:31.669Z,33.90
2022-11-24T18:14:03.421Z,33.40
2022-11-24T18:16:34.529Z,35.50
2022-11-24T18:19:09.177Z,30.50
2022-11-24T18:21:40.356Z,30.80
2022-11-24T18:24:09.545Z,30.90
2022-11-24T18:26:38.784Z,33.60
2022-11-24T18:29:06.897Z,35.30
2022-11-24T18:31:36.038Z,31.40
2022-11-24T18:34:06.083Z,33.50
2022-11-24T18:36:35.214Z,35.50
2022-11-24T18:39:05.339Z,36.90
2022-11-24T18:41:36.879Z,38.00
2022-11-24T18:44:08.254Z,33.50
2022-11-24T18:46:37.812Z,33.70
2022-11-24T18:49:07.364Z,33.60
2022-11-24T18:51:36.208Z,30.30
2022-11-24T18:54:05.649Z,34.60
2022-11-24T18:56:34.725Z,32.10
2022-11-24T18:59:02.933Z,34.30
2022-11-24T19:01:32.238Z,35.20
2022-11-24T19:04:05.519Z,30.70
2022-11-24T19:06:37.766Z,31.90
2022-11-24T19:09:09.237Z,31.70
2022-11-24T19:11:40.204Z,31.50
2022-11-24T19:14:19.446Z,29.00
2022-11-24T19:16:50.544Z,27.70
2022-11-24T19:19:18.630Z,30.90
2022-11-24T19:21:46.834Z,30.50
2022-11-24T19:24:14.919Z,32.70
2022-11-24T19:26:43.067Z,29.70
2022-11-24T19:29:11.439Z,29.00
2022-11-24T19:31:42.165Z,27.40
2022-11-24T19:34:10.706Z,25.20
2022-11-24T19:36:40.693Z,28.00
2022-11-24T19:39:14.684Z,26.20
2022-11-24T19:41:42.926Z,27.50
2022-11-24T19:44:11.923Z,25.90
2022-11-24T19:46:40.856Z,27.20
2022-11-24T19:49:09.198Z,27.50
2022-11-24T19:51:39.721Z,32.20
2022-11-24T19:54:13.393Z,29.70
2022-11-24T19:56:42.017Z,28.20
2022-11-24T19:59:13.068Z,27.80
2022-11-24T20:01:42.743Z,28.30
2022-11-24T20:04:15.117Z,27.60
2022-11-24T20:06:46.363Z,28.70
2022-11-24T20:09:25.050Z,28.80
2022-11-24T20:11:53.083Z,26.70
2022-11-24T20:14:22.152Z,26.10
2022-11-24T20:16:50.982Z,25.20
2022-11-24T20:19:19.142Z,27.10
2022-11-24T20:21:49.402Z,24.30
2022-11-24T20:24:23.432Z,21.50
2022-11-24T20:26:56.501Z,23.80
2022-11-24T20:29:25.251Z,27.40
2022-11-24T20:31:55.547Z,25.60
2022-11-24T20:34:28.458Z,26.60
2022-11-24T20:36:56.890Z,24.90
2022-11-24T20:39:27.886Z,24.40
2022-11-24T20:41:56.604Z,25.00
2022-11-24T20:44:26.826Z,21.00
2022-11-24T20:46:56.915Z,24.00
2022-11-24T20:49:26.019Z,21.90
2022-11-24T20:51:55.158Z,26.70
2022-11-24T20:54:23.853Z,26.50
2022-11-24T20:56:52.097Z,26.20
2022-11-24T20:59:22.783Z,26.70
2022-11-24T21:01:59.208Z,24.50
2022-11-24T21:04:27.626Z,25.00
2022-11-24T21:06:56.353Z,25.70
2022-11-24T21:09:25.101Z,26.30
2022-11-24T21:11:53.500Z,26.00
2022-11-24T21:14:21.771Z,27.10
2022-11-24T21:16:52.430Z,28.90
2022-11-24T21:19:21.285Z,29.50
2022-11-24T21:21:52.345Z,31.10
2022-11-24T21:24:23.174Z,30.90
2022-11-24T21:26:52.976Z,31.50
2022-11-24T21:29:23.733Z,33.90
2022-11-24T21:31:52.573Z,35.90
2022-11-24T21:34:20.918Z,37.40
2022-11-24T21:36:49.524Z,37.70
2022-11-24T21:39:19.285Z,38.90
2022-11-24T21:41:47.853Z,39.00
2022-11-24T21:44:16.093Z,40.20
2022-11-24T21:46:49.524Z,41.90
2022-11-24T21:49:19.361Z,41.00
2022-11-24T21:51:47.722Z,41.50
2022-11-24T21:54:15.779Z,38.70
2022-11-24T21:56:43.869Z,42.30
2022-11-24T21:59:13.107Z,43.40
2022-11-24T22:01:41.372Z,41.60
2022-11-24T22:04:09.795Z,40.30
2022-11-24T22:06:39.300Z,39.60
2022-11-24T22:09:07.536Z,37.80
2022-11-24T22:11:35.588Z,39.60
2022-11-24T22:14:03.725Z,37.50
2022-11-24T22:16:32.050Z,39.00
2022-11-24T22:19:00.861Z,39.30
2022-11-24T22:21:33.589Z,38.20
2022-11-24T22:24:02.529Z,39.50
2022-11-24T22:26:30.940Z,38.80
2022-11-24T22:28:59.869Z,39.90
2022-11-24T22:31:30.683Z,38.90
2022-11-24T22:34:00.710Z,39.40
2022-11-24T22:36:30.164Z,40.60
2022-11-24T22:39:03.354Z,36.70
2022-11-24T22:41:33.662Z,35.40
2022-11-24T22:44:02.375Z,32.70
2022-11-24T22:46:31.931Z,31.70
2022-11-24T22:49:01.838Z,31.50
2022-11-24T22:51:33.097Z,35.30
2022-11-24T22:54:03.651Z,30.90
2022-11-24T22:56:33.029Z,33.40
2022-11-24T22:59:02.740Z,30.20
2022-11-24T23:01:34.306Z,31.40
2022-11-24T23:04:03.913Z,27.70
2022-11-24T23:06:34.285Z,28.40
2022-11-24T23:09:04.377Z,29.60
2022-11-24T23:11:38.271Z,29.40
2022-11-24T23:14:11.861Z,30.30
2022-11-24T23:16:40.175Z,27.60
2022-11-24T23:19:09.716Z,27.80
2022-11-24T23:21:38.571Z,29.20
2022-11-24T23:24:08.696Z,29.80
2022-11-24T23:26:40.269Z,30.80
2022-11-24T23:29:10.407Z,26.70
2022-11-24T23:31:40.271Z,29.10
2022-11-24T23:34:08.983Z,32.40
2022-11-24T23:36:37.255Z,30.30
2022-11-24T23:39:07.333Z,30.20
2022-11-24T23:41:35.696Z,28.20
2022-11-24T23:44:03.888Z,29.10
2022-11-24T23:46:32.321Z,31.60
2022-11-24T23:49:00.525Z,28.40
2022-11-24T23:51:30.993Z,29.10
2022-11-24T23:54:02.627Z,30.90
2022-11-24T23:56:32.799Z,33.20
2022-11-24T23:59:02.980Z,30.10
